Time;durP1;ratioP1;P1;durP2;ratioP2;P2;SDS_P1;SDS_P2;PMS_P1;PMS_P2;Temp;Humidity;BMP_temperature;BMP_pressure;BME280_temperature;BME280_humidity;BME280_pressure;Samples;Min_cycle;Max_cycle;Signal;HPM_P1;HPM_P2
2023/07/25 00:00:31;;;;;;;1.73;0.88;;;17.60;99.90;17.60;99363.00;;;;4945521;28;118078;-66
2023/07/25 00:02:56;;;;;;;2.53;1.00;;;17.50;99.90;17.60;99357.00;;;;4943625;28;109939;-64
2023/07/25 00:05:22;;;;;;;3.35;1.02;;;17.50;99.90;17.60;99354.00;;;;4945345;28;109618;-66
2023/07/25 00:07:48;;;;;;;2.38;0.98;;;17.40;99.90;17.50;99351.00;;;;4951155;28;118208;-65
2023/07/25 00:10:14;;;;;;;2.05;1.08;;;17.40;99.90;17.50;99358.00;;;;4950922;28;117893;-64
2023/07/25 00:12:39;;;;;;;2.25;1.40;;;17.40;99.90;17.40;99360.00;;;;4951214;28;92207;-64
2023/07/25 00:15:06;;;;;;;1.55;1.05;;;17.30;99.90;17.40;99365.00;;;;4951091;28;108841;-65
2023/07/25 00:17:31;;;;;;;1.00;0.88;;;17.30;99.90;17.40;99361.00;;;;4948240;28;107710;-65
2023/07/25 00:19:57;;;;;;;1.27;0.75;;;17.20;99.90;17.30;99359.00;;;;4950179;28;117446;-65
2023/07/25 00:22:23;;;;;;;0.55;0.55;;;17.30;99.90;17.30;99343.00;;;;4950955;28;99878;-66
2023/07/25 00:24:49;;;;;;;1.58;0.85;;;17.20;99.90;17.30;99349.00;;;;4950308;28;108954;-66
2023/07/25 00:27:15;;;;;;;2.10;0.90;;;17.20;99.90;17.30;99349.00;;;;4949360;28;87545;-66
2023/07/25 00:29:40;;;;;;;0.93;0.80;;;17.20;99.90;17.20;99339.00;;;;4950340;28;114663;-66
2023/07/25 00:32:06;;;;;;;2.42;0.85;;;17.20;99.90;17.20;99354.00;;;;4952720;28;88043;-65
2023/07/25 00:34:33;;;;;;;0.55;0.52;;;17.10;99.90;17.20;99357.00;;;;4949295;28;99794;-66
2023/07/25 00:36:58;;;;;;;1.65;1.02;;;17.10;99.90;17.10;99360.00;;;;4946972;28;116441;-65
2023/07/25 00:39:24;;;;;;;3.78;1.10;;;17.10;99.90;17.10;99359.00;;;;4950612;28;117631;-65
2023/07/25 00:41:50;;;;;;;0.88;0.85;;;17.00;99.90;17.10;99357.00;;;;4950408;28;109593;-65
2023/07/25 00:44:15;;;;;;;0.80;0.63;;;17.00;99.90;17.10;99361.00;;;;4948471;28;109827;-65
2023/07/25 00:46:42;;;;;;;1.40;0.82;;;17.00;99.90;17.10;99349.00;;;;4949189;28;117122;-65
2023/07/25 00:49:08;;;;;;;1.15;1.05;;;17.00;99.90;17.10;99362.00;;;;4948956;28;110837;-65
2023/07/25 00:51:34;;;;;;;1.15;1.00;;;17.00;99.90;17.10;99345.00;;;;4951100;28;108148;-65
2023/07/25 00:54:01;;;;;;;1.00;0.70;;;16.90;99.90;17.00;99356.00;;;;4948511;28;87903;-65
2023/07/25 00:56:27;;;;;;;1.60;1.20;;;17.00;99.90;17.00;99350.00;;;;4944060;28;108415;-65
2023/07/25 00:58:54;;;;;;;0.63;0.43;;;16.90;99.90;17.00;99362.00;;;;4947937;28;117501;-65
2023/07/25 01:01:22;;;;;;;1.45;1.20;;;16.90;99.90;17.00;99355.00;;;;4946517;28;101787;-66
2023/07/25 01:03:48;;;;;;;1.95;1.20;;;16.90;99.90;16.90;99357.00;;;;4948585;28;87956;-65
2023/07/25 01:06:17;;;;;;;0.80;0.80;;;16.80;99.90;16.90;99369.00;;;;4947287;28;88636;-66
2023/07/25 01:08:49;;;;;;;1.42;0.65;;;16.80;99.90;16.90;99364.00;;;;4946695;28;88745;-66
2023/07/25 01:11:15;;;;;;;2.45;1.17;;;16.80;99.90;16.80;99369.00;;;;4948128;28;87894;-66
2023/07/25 01:13:40;;;;;;;0.80;0.80;;;16.80;99.90;16.80;99371.00;;;;4945337;28;88023;-66
2023/07/25 01:16:09;;;;;;;3.65;1.15;;;16.70;99.90;16.80;99363.00;;;;4950263;28;116869;-66
2023/07/25 01:18:36;;;;;;;1.08;0.98;;;16.70;99.90;16.80;99356.00;;;;4945036;28;87967;-66
2023/07/25 01:21:03;;;;;;;3.22;1.55;;;16.60;99.90;16.70;99369.00;;;;4948022;28;88195;-66
2023/07/25 01:23:30;;;;;;;1.00;0.75;;;16.60;99.90;16.70;99375.00;;;;4948637;28;88830;-65
2023/07/25 01:25:56;;;;;;;1.88;0.93;;;16.60;99.90;16.70;99386.00;;;;4931917;28;116737;-66
2023/07/25 01:28:22;;;;;;;2.22;1.20;;;16.60;99.90;16.60;99377.00;;;;4946527;28;109075;-66
2023/07/25 01:30:48;;;;;;;1.13;1.02;;;16.50;99.90;16.60;99385.00;;;;4950889;28;104366;-66
2023/07/25 01:33:13;;;;;;;1.50;0.70;;;16.50;99.90;16.60;99375.00;;;;4945394;28;109373;-65
2023/07/25 01:35:39;;;;;;;1.00;0.73;;;16.50;99.90;16.60;99374.00;;;;4949706;28;117021;-65
2023/07/25 01:38:05;;;;;;;1.35;0.80;;;16.50;99.90;16.60;99377.00;;;;4951386;28;117536;-65
2023/07/25 01:40:30;;;;;;;1.08;0.88;;;16.50;99.90;16.50;99364.00;;;;4950171;28;87006;-65
2023/07/25 01:42:56;;;;;;;1.83;1.08;;;16.40;99.90;16.50;99384.00;;;;4949919;28;107113;-66
2023/07/25 01:45:22;;;;;;;2.10;0.50;;;16.40;99.90;16.50;99374.00;;;;4947632;28;118797;-66
2023/07/25 01:47:47;;;;;;;1.10;1.00;;;16.40;99.90;16.50;99383.00;;;;4948913;28;104280;-66
2023/07/25 01:50:13;;;;;;;1.52;0.65;;;16.40;99.90;16.50;99382.00;;;;4948504;28;97647;-67
2023/07/25 01:52:39;;;;;;;1.20;1.10;;;16.40;99.90;16.50;99385.00;;;;4951247;28;91147;-67
2023/07/25 01:55:05;;;;;;;1.83;0.90;;;16.40;99.90;16.50;99372.00;;;;4948764;28;117688;-65
2023/07/25 01:57:31;;;;;;;0.98;0.73;;;16.40;99.90;16.50;99377.00;;;;4947313;28;104020;-65
2023/07/25 01:59:57;;;;;;;0.85;0.63;;;16.40;99.90;16.50;99376.00;;;;4949854;28;109982;-65
2023/07/25 02:02:23;;;;;;;0.75;0.60;;;16.40;99.90;16.50;99382.00;;;;4948428;28;103682;-66
2023/07/25 02:04:49;;;;;;;1.05;0.95;;;16.40;99.90;16.50;99384.00;;;;4945623;28;116944;-65
2023/07/25 02:07:14;;;;;;;1.65;1.55;;;16.40;99.90;16.50;99392.00;;;;4949006;28;87986;-66
2023/07/25 02:09:40;;;;;;;2.25;1.33;;;16.40;99.90;16.50;99385.00;;;;4947300;28;111774;-65
2023/07/25 02:12:08;;;;;;;0.75;0.73;;;16.40;99.90;16.50;99388.00;;;;4945862;28;108665;-65
2023/07/25 02:14:33;;;;;;;1.73;0.93;;;16.40;99.90;16.40;99392.00;;;;4949821;28;104409;-65
2023/07/25 02:16:59;;;;;;;2.75;1.20;;;16.30;99.90;16.40;99395.00;;;;4947739;28;115024;-66
2023/07/25 02:19:24;;;;;;;1.55;1.13;;;16.30;99.90;16.40;99400.00;;;;4949084;28;110678;-65
2023/07/25 02:21:50;;;;;;;0.95;0.93;;;16.30;99.90;16.40;99399.00;;;;4948130;28;108818;-66
2023/07/25 02:24:16;;;;;;;2.83;1.15;;;16.30;99.90;16.30;99393.00;;;;4946981;28;117516;-66
2023/07/25 02:26:41;;;;;;;2.88;0.80;;;16.20;99.90;16.30;99396.00;;;;4944536;28;117543;-65
2023/07/25 02:29:07;;;;;;;1.05;1.00;;;16.20;99.90;16.30;99401.00;;;;4948011;28;110943;-65
2023/07/25 02:31:33;;;;;;;1.35;1.13;;;16.20;99.90;16.20;99399.00;;;;4947225;28;107016;-65
2023/07/25 02:33:58;;;;;;;1.27;0.98;;;16.20;99.90;16.20;99399.00;;;;4947515;28;117782;-64
2023/07/25 02:36:24;;;;;;;0.98;0.95;;;16.10;99.90;16.20;99396.00;;;;4948037;28;117524;-65
2023/07/25 02:38:50;;;;;;;2.47;1.80;;;16.10;99.90;16.20;99396.00;;;;4949268;28;88177;-65
2023/07/25 02:41:16;;;;;;;3.17;1.27;;;16.10;99.90;16.20;99393.00;;;;4950891;28;88094;-65
2023/07/25 02:43:42;;;;;;;1.65;1.20;;;16.10;99.90;16.10;99387.00;;;;4947428;28;98769;-65
2023/07/25 02:46:11;;;;;;;1.55;1.20;;;16.10;99.90;16.10;99384.00;;;;4947328;28;117431;-65
2023/07/25 02:48:36;;;;;;;2.00;1.25;;;16.00;99.90;16.10;99384.00;;;;4947264;28;103301;-66
2023/07/25 02:51:02;;;;;;;1.83;1.15;;;16.00;99.90;16.10;99392.00;;;;4945168;28;87821;-66
2023/07/25 02:53:28;;;;;;;0.93;0.82;;;16.00;99.90;16.10;99379.00;;;;4949223;28;106782;-65
2023/07/25 02:55:56;;;;;;;0.95;0.90;;;16.00;99.90;16.10;99389.00;;;;4947382;28;88018;-65
2023/07/25 02:58:23;;;;;;;1.48;1.10;;;16.00;99.90;16.10;99384.00;;;;4947679;28;87830;-67
2023/07/25 03:00:48;;;;;;;1.25;1.10;;;16.00;99.90;16.10;99378.00;;;;4945511;28;89115;-65
2023/07/25 03:03:14;;;;;;;4.38;1.73;;;16.00;99.90;16.00;99381.00;;;;4952107;28;88194;-65
2023/07/25 03:05:40;;;;;;;1.20;1.10;;;16.00;99.90;16.00;99383.00;;;;4948501;28;116693;-65
2023/07/25 03:08:05;;;;;;;1.05;0.82;;;16.00;99.90;16.00;99390.00;;;;4947923;28;108612;-66
2023/07/25 03:10:32;;;;;;;1.30;1.00;;;15.90;99.90;16.00;99385.00;;;;4946968;28;108836;-65
2023/07/25 03:12:58;;;;;;;2.15;1.05;;;15.90;99.90;16.00;99388.00;;;;4948294;28;88726;-65
2023/07/25 03:15:24;;;;;;;3.33;1.63;;;15.90;99.90;16.00;99377.00;;;;4947837;28;89304;-64
2023/07/25 03:17:50;;;;;;;0.95;0.82;;;15.90;99.90;16.00;99382.00;;;;4949780;28;87530;-65
2023/07/25 03:20:15;;;;;;;1.58;1.10;;;15.90;99.90;15.90;99392.00;;;;4945514;28;87738;-66
2023/07/25 03:22:41;;;;;;;4.03;1.40;;;15.90;99.90;15.90;99386.00;;;;4948686;28;118787;-65
2023/07/25 03:25:08;;;;;;;1.98;1.35;;;15.90;99.90;15.90;99393.00;;;;4947113;28;101847;-65
2023/07/25 03:27:34;;;;;;;1.65;1.08;;;15.80;99.90;15.90;99399.00;;;;4947883;28;100878;-65
2023/07/25 03:30:04;;;;;;;1.58;0.93;;;15.80;99.90;15.90;99396.00;;;;4946694;28;109004;-66
2023/07/25 03:32:29;;;;;;;1.75;1.17;;;15.80;99.90;15.90;99391.00;;;;4947533;28;88231;-66
2023/07/25 03:34:55;;;;;;;1.27;0.80;;;15.80;99.90;15.90;99395.00;;;;4948441;28;87872;-66
2023/07/25 03:37:21;;;;;;;1.55;1.38;;;15.80;99.90;15.90;99400.00;;;;4946372;28;109663;-65
2023/07/25 03:39:47;;;;;;;1.33;1.23;;;15.80;99.90;15.90;99409.00;;;;4947852;28;109035;-66
2023/07/25 03:42:12;;;;;;;0.73;0.73;;;15.80;99.90;15.90;99398.00;;;;4946597;28;117837;-64
2023/07/25 03:44:38;;;;;;;0.77;0.77;;;15.80;99.90;15.90;99399.00;;;;4945546;28;115474;-65
2023/07/25 03:47:04;;;;;;;1.02;0.93;;;15.80;99.90;15.90;99404.00;;;;4947585;28;109558;-65
2023/07/25 03:49:30;;;;;;;1.58;1.00;;;15.80;99.90;15.90;99406.00;;;;4949345;28;97599;-64
2023/07/25 03:51:55;;;;;;;1.23;0.90;;;15.80;99.90;15.90;99407.00;;;;4951178;28;117368;-66
2023/07/25 03:54:23;;;;;;;1.75;0.88;;;15.80;99.90;15.90;99413.00;;;;4949400;28;116786;-65
2023/07/25 03:56:53;;;;;;;3.60;0.85;;;15.80;99.90;15.90;99408.00;;;;4953600;28;87779;-65
2023/07/25 03:59:19;;;;;;;1.80;1.33;;;15.80;99.90;16.00;99426.00;;;;4950355;28;87847;-65
2023/07/25 04:01:44;;;;;;;1.02;0.93;;;15.90;99.90;16.00;99425.00;;;;4954483;28;88717;-66
2023/07/25 04:04:10;;;;;;;4.20;1.60;;;15.90;99.90;16.10;99435.00;;;;4948784;28;117510;-66
2023/07/25 04:06:38;;;;;;;6.70;0.95;;;15.90;99.90;16.10;99429.00;;;;4948421;28;110911;-65
2023/07/25 04:09:04;;;;;;;2.15;1.10;;;15.90;99.90;16.10;99420.00;;;;4953150;28;87672;-65
2023/07/25 04:11:30;;;;;;;1.58;0.80;;;16.00;99.90;16.20;99418.00;;;;4952110;28;89457;-65
2023/07/25 04:13:56;;;;;;;1.23;1.13;;;16.00;99.90;16.20;99417.00;;;;4949679;28;88875;-65
2023/07/25 04:16:22;;;;;;;1.90;1.45;;;16.10;99.90;16.20;99423.00;;;;4949150;28;98749;-64
2023/07/25 04:18:48;;;;;;;0.88;0.88;;;16.10;99.90;16.30;99423.00;;;;4948050;28;88067;-65
2023/07/25 04:21:13;;;;;;;4.03;1.00;;;16.10;99.90;16.40;99413.00;;;;4946420;28;106450;-66
2023/07/25 04:23:39;;;;;;;1.85;1.40;;;16.20;99.90;16.50;99398.00;;;;4947493;28;88243;-65
2023/07/25 04:26:05;;;;;;;1.13;1.02;;;16.30;99.90;16.60;99402.00;;;;4950479;28;108983;-65
2023/07/25 04:28:30;;;;;;;1.52;1.42;;;16.40;99.90;16.60;99394.00;;;;4950898;28;107612;-65
2023/07/25 04:30:56;;;;;;;1.65;1.00;;;16.50;99.90;16.70;99392.00;;;;4951043;28;109889;-65
2023/07/25 04:33:22;;;;;;;0.93;0.88;;;16.50;99.90;16.80;99389.00;;;;4946804;28;115584;-64
2023/07/25 04:35:47;;;;;;;2.60;1.30;;;16.50;99.90;16.80;99394.00;;;;4947040;28;110627;-66
2023/07/25 04:38:14;;;;;;;2.90;1.42;;;16.70;99.90;16.90;99397.00;;;;4948894;28;89798;-65
2023/07/25 04:40:41;;;;;;;0.85;0.85;;;16.70;99.90;16.90;99393.00;;;;4950518;28;116321;-65
2023/07/25 04:43:07;;;;;;;2.38;1.13;;;16.80;99.90;17.00;99393.00;;;;4949730;28;88478;-65
2023/07/25 04:45:33;;;;;;;2.65;0.98;;;16.80;99.90;17.00;99392.00;;;;4944598;28;110288;-66
2023/07/25 04:47:58;;;;;;;3.78;1.48;;;16.90;99.90;17.10;99382.00;;;;4945584;28;110280;-65
2023/07/25 04:50:24;;;;;;;4.35;1.55;;;16.90;99.90;17.10;99382.00;;;;4947038;28;88594;-64
2023/07/25 04:52:53;;;;;;;2.28;1.23;;;17.00;99.90;17.10;99392.00;;;;4944126;28;118958;-64
2023/07/25 04:55:19;;;;;;;1.08;0.98;;;17.00;99.90;17.10;99401.00;;;;4947132;28;87176;-64
2023/07/25 04:57:44;;;;;;;3.08;1.02;;;17.00;99.90;17.20;99414.00;;;;4947178;28;87797;-64
2023/07/25 05:00:11;;;;;;;1.60;1.48;;;17.10;99.90;17.20;99428.00;;;;4944760;28;94189;-64
2023/07/25 05:02:37;;;;;;;1.52;1.35;;;17.20;99.90;17.30;99450.00;;;;4947535;28;88749;-64
2023/07/25 05:05:04;;;;;;;4.32;2.20;;;17.10;99.90;17.30;99450.00;;;;4945436;28;106860;-65
2023/07/25 05:07:29;;;;;;;2.25;1.40;;;17.20;99.90;17.30;99442.00;;;;4946550;28;98650;-65
2023/07/25 05:09:55;;;;;;;1.45;1.33;;;17.20;99.90;17.30;99440.00;;;;4950104;28;91481;-65
2023/07/25 05:12:21;;;;;;;2.03;1.25;;;17.20;99.90;17.40;99439.00;;;;4946853;28;116952;-65
2023/07/25 05:14:46;;;;;;;1.48;1.30;;;17.20;99.90;17.40;99435.00;;;;4952294;28;88351;-66
2023/07/25 05:17:12;;;;;;;1.92;1.77;;;17.30;99.90;17.50;99435.00;;;;4951471;28;108517;-65
2023/07/25 05:19:41;;;;;;;2.63;1.67;;;17.30;99.90;17.50;99440.00;;;;4949603;28;117627;-66
2023/07/25 05:22:07;;;;;;;4.07;2.65;;;17.40;99.90;17.60;99448.00;;;;4947683;28;87873;-65
2023/07/25 05:24:33;;;;;;;2.63;1.35;;;17.40;99.90;17.60;99450.00;;;;4949344;28;93859;-64
2023/07/25 05:26:58;;;;;;;2.03;1.73;;;17.50;99.90;17.70;99451.00;;;;4946356;28;107565;-65
2023/07/25 05:29:24;;;;;;;2.47;1.50;;;17.50;99.90;17.70;99445.00;;;;4949914;28;118825;-64
2023/07/25 05:31:49;;;;;;;1.98;1.27;;;17.50;99.90;17.70;99455.00;;;;4955531;28;117710;-64
2023/07/25 05:34:15;;;;;;;7.03;1.65;;;17.60;99.90;17.80;99467.00;;;;4949381;28;109461;-64
2023/07/25 05:36:41;;;;;;;1.58;1.40;;;17.60;99.90;17.90;99463.00;;;;4948651;28;109554;-64
2023/07/25 05:39:06;;;;;;;5.07;2.53;;;17.70;99.90;17.90;99467.00;;;;4946921;28;119539;-64
2023/07/25 05:41:32;;;;;;;2.45;1.50;;;17.80;99.90;18.00;99468.00;;;;4950910;28;117154;-65
2023/07/25 05:43:58;;;;;;;1.75;1.52;;;17.80;99.90;18.00;99483.00;;;;4948915;28;97323;-64
2023/07/25 05:46:24;;;;;;;1.83;1.67;;;17.90;99.90;18.10;99477.00;;;;4947876;28;110205;-65
2023/07/25 05:48:49;;;;;;;2.83;1.83;;;17.90;99.90;18.20;99489.00;;;;4948591;28;116795;-65
2023/07/25 05:51:15;;;;;;;1.67;1.50;;;18.00;99.90;18.20;99487.00;;;;4950169;28;117951;-65
2023/07/25 05:53:41;;;;;;;1.83;1.55;;;18.10;99.90;18.20;99492.00;;;;4951101;28;110694;-64
2023/07/25 05:56:06;;;;;;;1.40;1.27;;;18.10;99.90;18.30;99493.00;;;;4949250;28;91636;-64
2023/07/25 05:58:32;;;;;;;1.17;0.95;;;18.20;99.90;18.40;99497.00;;;;4949135;28;118151;-64
2023/07/25 06:00:58;;;;;;;1.42;1.25;;;18.20;99.90;18.50;99494.00;;;;4946610;28;102157;-64
2023/07/25 06:03:23;;;;;;;1.50;1.17;;;18.30;99.90;18.50;99511.00;;;;4946853;28;110135;-64
2023/07/25 06:05:49;;;;;;;1.40;1.13;;;18.40;99.90;18.60;99500.00;;;;4950748;28;107496;-64
2023/07/25 06:08:14;;;;;;;1.42;1.05;;;18.40;99.90;18.60;99509.00;;;;4950208;28;116215;-64
2023/07/25 06:10:40;;;;;;;2.67;1.48;;;18.50;99.90;18.60;99519.00;;;;4946273;28;118118;-65
2023/07/25 06:13:06;;;;;;;3.13;1.30;;;18.50;99.90;18.60;99501.00;;;;4953879;28;87725;-65
2023/07/25 06:15:36;;;;;;;1.92;1.58;;;18.50;99.90;18.50;99500.00;;;;4948003;28;89052;-65
2023/07/25 06:18:03;;;;;;;1.02;1.02;;;18.40;99.90;18.50;99512.00;;;;4947569;28;89007;-65
2023/07/25 06:20:30;;;;;;;1.55;1.13;;;18.40;99.90;18.60;99514.00;;;;4948543;28;106798;-66
2023/07/25 06:22:55;;;;;;;2.42;1.45;;;18.40;99.90;18.60;99510.00;;;;4949591;28;87930;-65
2023/07/25 06:25:21;;;;;;;1.27;1.15;;;18.40;99.90;18.60;99512.00;;;;4946393;28;109561;-65
2023/07/25 06:27:46;;;;;;;2.42;1.33;;;18.40;99.90;18.60;99515.00;;;;4947376;28;116230;-66
2023/07/25 06:30:12;;;;;;;2.10;1.17;;;18.50;99.90;18.70;99506.00;;;;4949513;28;117607;-65
2023/07/25 06:32:38;;;;;;;3.75;2.28;;;18.50;99.90;18.80;99512.00;;;;4947740;28;89025;-65
2023/07/25 06:35:04;;;;;;;1.98;1.27;;;18.60;99.90;18.80;99501.00;;;;4946897;28;87799;-63
2023/07/25 06:37:33;;;;;;;1.27;1.17;;;18.70;99.90;18.90;99496.00;;;;4945923;28;106552;-64
2023/07/25 06:40:00;;;;;;;3.05;1.20;;;18.70;99.90;18.90;99493.00;;;;4946217;28;88755;-65
2023/07/25 06:42:31;;;;;;;1.88;1.48;;;18.80;99.90;19.00;99492.00;;;;4949878;28;87817;-65
2023/07/25 06:44:57;;;;;;;1.52;1.02;;;18.80;99.90;19.00;99496.00;;;;4947501;28;108912;-65
2023/07/25 06:47:24;;;;;;;1.75;1.50;;;18.90;99.90;19.10;99482.00;;;;4947558;28;117208;-65
2023/07/25 06:49:50;;;;;;;4.38;2.10;;;18.90;99.90;19.10;99472.00;;;;4949746;28;88700;-65
2023/07/25 06:52:16;;;;;;;1.67;1.40;;;18.90;99.90;19.20;99478.00;;;;4949819;28;103511;-64
2023/07/25 06:54:44;;;;;;;1.48;1.38;;;19.00;99.90;19.20;99477.00;;;;4949430;28;108243;-65
2023/07/25 06:57:10;;;;;;;1.98;1.17;;;19.00;99.90;19.30;99475.00;;;;4951071;28;106738;-65
2023/07/25 06:59:36;;;;;;;1.27;1.00;;;19.10;99.90;19.30;99481.00;;;;4947544;28;109196;-65
2023/07/25 07:02:02;;;;;;;2.00;0.82;;;19.10;99.90;19.30;99474.00;;;;4950532;28;109975;-65
2023/07/25 07:04:27;;;;;;;2.05;1.60;;;19.10;99.90;19.30;99466.00;;;;4946763;28;88873;-65
2023/07/25 07:06:53;;;;;;;2.08;1.25;;;19.10;99.90;19.40;99464.00;;;;4950734;28;88766;-65
2023/07/25 07:09:18;;;;;;;1.65;1.17;;;19.20;99.90;19.50;99470.00;;;;4944930;28;116858;-65
2023/07/25 07:11:44;;;;;;;4.50;1.15;;;19.30;99.90;19.60;99472.00;;;;4948095;28;110845;-65
2023/07/25 07:14:10;;;;;;;1.27;1.05;;;19.40;99.90;19.70;99465.00;;;;4946315;28;107392;-65
2023/07/25 07:16:36;;;;;;;2.45;1.42;;;19.40;99.90;19.80;99457.00;;;;4949759;28;117441;-65
2023/07/25 07:19:01;;;;;;;1.58;1.05;;;19.60;99.90;20.10;99456.00;;;;4946346;28;116756;-65
2023/07/25 07:21:27;;;;;;;1.20;0.82;;;19.80;99.90;20.40;99457.00;;;;4950379;28;87020;-65
2023/07/25 07:23:53;;;;;;;1.58;1.27;;;20.10;99.90;20.70;99432.00;;;;4948078;28;109142;-65
2023/07/25 07:26:18;;;;;;;2.33;1.15;;;20.40;99.90;21.00;99429.00;;;;4943858;28;118070;-64
2023/07/25 07:28:45;;;;;;;1.67;1.08;;;20.70;99.90;21.30;99420.00;;;;4946452;28;116097;-64
2023/07/25 07:31:12;;;;;;;1.20;0.68;;;20.90;99.90;21.50;99415.00;;;;4946741;28;87796;-65
2023/07/25 07:33:38;;;;;;;0.88;0.85;;;21.20;99.90;21.70;99410.00;;;;4945647;28;87896;-65
2023/07/25 07:36:05;;;;;;;0.82;0.82;;;21.40;99.90;22.00;99401.00;;;;4945360;28;88263;-65
2023/07/25 07:38:31;;;;;;;1.58;0.70;;;21.60;99.90;22.30;99401.00;;;;4948209;28;118404;-64
2023/07/25 07:40:56;;;;;;;0.88;0.82;;;21.90;99.90;22.50;99407.00;;;;4950721;28;104559;-65
2023/07/25 07:43:22;;;;;;;0.95;0.75;;;22.20;99.40;22.60;99413.00;;;;4946919;28;101728;-66
2023/07/25 07:45:49;;;;;;;0.98;0.68;;;22.30;97.60;22.70;99414.00;;;;4947593;28;117249;-66
2023/07/25 07:48:15;;;;;;;1.35;0.70;;;22.50;96.60;22.80;99415.00;;;;4947565;28;88840;-66
2023/07/25 07:50:42;;;;;;;2.10;0.85;;;22.60;95.80;22.90;99416.00;;;;4949543;28;87822;-65
2023/07/25 07:53:08;;;;;;;0.55;0.55;;;22.70;95.10;23.00;99415.00;;;;4947504;28;91292;-65
2023/07/25 07:55:34;;;;;;;0.30;0.30;;;22.80;94.50;23.20;99414.00;;;;4945498;28;117126;-65
2023/07/25 07:58:00;;;;;;;0.68;0.57;;;22.90;94.20;23.40;99415.00;;;;4947264;28;115487;-65
2023/07/25 08:00:25;;;;;;;1.90;1.10;;;23.10;93.80;23.60;99411.00;;;;4946445;28;87948;-65
2023/07/25 08:02:51;;;;;;;0.60;0.60;;;23.30;92.90;23.60;99404.00;;;;4952892;28;87857;-65
2023/07/25 08:05:17;;;;;;;0.52;0.30;;;23.40;92.20;23.70;99404.00;;;;4948169;28;89283;-65
2023/07/25 08:07:43;;;;;;;0.70;0.70;;;23.40;91.60;23.80;99406.00;;;;4948298;28;88500;-65
2023/07/25 08:10:09;;;;;;;0.38;0.35;;;23.50;91.20;23.80;99424.00;;;;4946592;28;87614;-64
2023/07/25 08:12:35;;;;;;;0.55;0.40;;;23.60;90.30;23.60;99424.00;;;;4945994;28;88434;-66
2023/07/25 08:15:02;;;;;;;1.00;0.85;;;23.60;88.60;23.40;99430.00;;;;4946705;28;116971;-66
2023/07/25 08:20:08;;;;;;;1.05;0.80;;;23.20;88.00;23.30;99450.00;;;;4921922;27;81006;-64
2023/07/25 08:22:34;;;;;;;0.90;0.80;;;23.20;88.30;23.40;99448.00;;;;4903399;28;82143;-64
2023/07/25 08:24:59;;;;;;;1.13;1.02;;;23.20;88.30;23.50;99449.00;;;;4905745;28;91536;-64
2023/07/25 08:27:25;;;;;;;0.70;0.70;;;23.30;88.30;23.70;99449.00;;;;4907584;28;110035;-65
2023/07/25 08:29:51;;;;;;;1.02;0.50;;;23.40;87.80;23.80;99446.00;;;;4907459;28;112226;-65
2023/07/25 08:32:17;;;;;;;0.95;0.60;;;23.50;87.40;24.00;99452.00;;;;4902409;28;81162;-65
2023/07/25 08:34:42;;;;;;;0.88;0.50;;;23.60;86.50;24.00;99454.00;;;;4900077;28;109975;-64
2023/07/25 08:37:08;;;;;;;0.52;0.52;;;23.80;86.00;24.00;99462.00;;;;4901988;28;93265;-65
2023/07/25 08:39:34;;;;;;;0.60;0.60;;;23.80;84.50;24.00;99463.00;;;;4915815;28;110522;-66
2023/07/25 08:42:06;;;;;;;1.42;0.55;;;23.80;84.30;24.00;99448.00;;;;4905966;28;82229;-66
2023/07/25 08:44:35;;;;;;;0.70;0.50;;;23.80;83.40;24.20;99451.00;;;;4906353;28;81768;-66
2023/07/25 08:47:22;;;;;;;0.40;0.25;;;23.90;83.50;24.40;99452.00;;;;4913127;28;81299;-65
2023/07/25 08:49:53;;;;;;;0.70;0.60;;;24.10;82.10;24.50;99454.00;;;;4905725;28;81236;-66
2023/07/25 08:52:20;;;;;;;1.10;0.88;;;24.20;81.10;24.80;99453.00;;;;4905617;28;81046;-66
2023/07/25 08:54:49;;;;;;;0.50;0.35;;;24.40;80.40;25.00;99457.00;;;;4895715;28;81586;-65
2023/07/25 08:57:18;;;;;;;0.82;0.43;;;24.70;79.20;25.20;99460.00;;;;4915453;28;80852;-65
2023/07/25 08:59:47;;;;;;;1.65;0.77;;;25.00;78.40;25.30;99446.00;;;;4909053;28;81173;-65
2023/07/25 09:02:15;;;;;;;0.47;0.43;;;25.00;76.30;25.30;99442.00;;;;4908684;28;81813;-66
2023/07/25 09:04:42;;;;;;;0.50;0.45;;;25.00;74.50;25.20;99446.00;;;;4903712;28;81666;-65
2023/07/25 09:07:08;;;;;;;1.80;0.52;;;25.00;74.70;25.20;99452.00;;;;4905274;28;100721;-65
2023/07/25 09:09:34;;;;;;;0.82;0.63;;;25.00;74.80;25.30;99459.00;;;;4905237;28;111310;-66
2023/07/25 09:11:59;;;;;;;0.93;0.43;;;25.00;74.40;25.20;99463.00;;;;4902767;28;109727;-65
2023/07/25 09:14:25;;;;;;;0.30;0.28;;;25.00;72.70;25.10;99461.00;;;;4899622;28;81138;-66
2023/07/25 09:16:51;;;;;;;0.65;0.65;;;24.90;72.50;25.10;99465.00;;;;4896484;28;108300;-65
2023/07/25 09:19:16;;;;;;;1.90;0.80;;;24.80;72.80;25.10;99457.00;;;;4897543;28;81892;-65
2023/07/25 09:21:48;;;;;;;0.77;0.77;;;24.80;72.70;25.10;99453.00;;;;4899519;28;110316;-65
2023/07/25 09:24:14;;;;;;;1.65;0.47;;;24.80;72.10;25.00;99449.00;;;;4902207;28;81651;-65
2023/07/25 09:26:41;;;;;;;0.75;0.45;;;24.80;72.20;25.00;99451.00;;;;4897330;28;81055;-66
2023/07/25 09:29:07;;;;;;;0.50;0.50;;;24.70;72.00;25.10;99467.00;;;;4903313;28;82007;-66
2023/07/25 09:31:44;;;;;;;2.15;0.80;;;24.70;72.30;25.10;99469.00;;;;4888945;28;108665;-64
2023/07/25 09:34:16;;;;;;;0.68;0.60;;;24.70;71.00;24.90;99468.00;;;;4891961;28;81120;-65
2023/07/25 09:36:47;;;;;;;2.25;0.80;;;24.70;71.10;25.00;99464.00;;;;4897945;28;84350;-65
2023/07/25 09:39:13;;;;;;;0.93;0.63;;;24.70;71.50;25.00;99460.00;;;;4887665;28;82107;-66
2023/07/25 09:41:39;;;;;;;0.40;0.40;;;24.70;70.70;24.90;99462.00;;;;4887399;28;81869;-65
2023/07/25 09:44:05;;;;;;;0.50;0.50;;;24.70;70.20;24.90;99455.00;;;;4887538;28;94723;-66
2023/07/25 09:46:31;;;;;;;0.20;0.20;;;24.60;69.60;24.80;99453.00;;;;4886179;28;81284;-65
2023/07/25 09:48:57;;;;;;;1.30;0.50;;;24.60;69.70;24.70;99457.00;;;;4890827;28;101517;-66
2023/07/25 09:51:23;;;;;;;1.58;0.98;;;24.50;69.30;24.80;99461.00;;;;4894709;28;110759;-65
2023/07/25 09:53:54;;;;;;;2.45;0.60;;;24.50;69.40;24.90;99458.00;;;;4891416;28;110265;-65
2023/07/25 09:56:25;;;;;;;2.42;1.23;;;24.60;70.00;25.10;99455.00;;;;4880380;28;81022;-65
2023/07/25 09:58:52;;;;;;;0.57;0.57;;;24.80;69.80;25.40;99449.00;;;;4883436;28;82010;-66
2023/07/25 10:01:18;;;;;;;0.38;0.38;;;25.00;69.50;25.60;99451.00;;;;4886465;28;80965;-65
2023/07/25 10:03:45;;;;;;;1.10;0.75;;;25.30;69.40;25.70;99454.00;;;;4888420;28;110369;-65
2023/07/25 10:06:14;;;;;;;1.08;0.80;;;25.30;69.00;25.90;99451.00;;;;4892148;28;83956;-65
2023/07/25 10:08:43;;;;;;;1.35;0.60;;;25.40;68.30;26.00;99449.00;;;;4883148;28;82214;-65
2023/07/25 10:11:12;;;;;;;0.40;0.40;;;25.50;67.70;26.00;99438.00;;;;4885308;28;81296;-65
2023/07/25 10:13:39;;;;;;;0.28;0.28;;;25.60;66.60;25.90;99445.00;;;;4888436;28;80978;-66
2023/07/25 10:16:05;;;;;;;0.70;0.45;;;25.60;66.20;25.90;99432.00;;;;4889333;28;96685;-65
2023/07/25 10:18:34;;;;;;;0.90;0.20;;;25.60;65.00;25.90;99434.00;;;;4882244;28;81815;-65
2023/07/25 10:21:00;;;;;;;0.55;0.52;;;25.60;65.60;26.00;99427.00;;;;4887379;28;82249;-66
2023/07/25 10:23:32;;;;;;;0.47;0.47;;;25.60;65.30;26.20;99430.00;;;;4883604;28;110388;-65
2023/07/25 10:26:12;;;;;;;1.42;0.70;;;25.70;65.30;26.50;99428.00;;;;4887489;28;81120;-65
2023/07/25 10:28:38;;;;;;;0.50;0.50;;;26.00;65.00;26.90;99423.00;;;;4878958;28;81337;-64
2023/07/25 10:31:08;;;;;;;2.10;0.68;;;26.30;64.00;27.10;99433.00;;;;4889931;28;102464;-65
2023/07/25 10:33:38;;;;;;;1.25;0.55;;;26.70;62.90;27.20;99428.00;;;;4887733;28;81313;-65
2023/07/25 10:36:04;;;;;;;1.20;0.65;;;26.70;60.90;27.20;99424.00;;;;4886092;28;81188;-66
2023/07/25 10:38:42;;;;;;;0.60;0.60;;;26.80;60.80;27.10;99424.00;;;;4887090;28;81164;-66
2023/07/25 10:41:10;;;;;;;0.98;0.80;;;26.70;60.50;27.10;99433.00;;;;4889754;28;80800;-65
2023/07/25 10:43:48;;;;;;;0.32;0.32;;;26.70;61.10;27.20;99426.00;;;;4882706;28;81878;-65
2023/07/25 10:46:17;;;;;;;1.23;0.73;;;26.80;61.10;27.30;99425.00;;;;4892680;28;81314;-64
2023/07/25 10:48:47;;;;;;;0.47;0.30;;;26.90;61.00;27.60;99430.00;;;;4895433;28;93980;-66